Air Resources Laboratory banner image
Air Resources Laboratory web site National Oceanic and Atmospheric Administration (NOAA)

id metar


KBOI 170753Z 19003KT 10SM CLR 06/M01 A3033 RMK AO2 SLP269 T00611011=
KBYI 170753Z AUTO 19003KT 10SM CLR 01/M03 A3034 RMK AO2 SLP270 T00111028=
KCOE 170756Z AUTO 07006KT 10SM CLR 04/01 A3038 RMK AO2 SLP310 T00440006
 401721022 PNO $=
KEUL 170756Z AUTO 05003KT 10SM CLR 03/00 A3034 RMK AO2 RAE00 SLP279 P0000
 T00280000=
KIDA 170753Z AUTO 01004KT 10SM CLR M01/M04 A3038 RMK AO2 SLP292 T10061039=
KJER 170753Z AUTO 10004KT 10SM CLR 01/M03 A3035 RMK AO2 SLP280 T00111028=
KLLJ 170755Z AUTO 34003KT 10SM CLR 01/M04 A3042 RMK AO2 SLP292 T00111039=
KLWS 170756Z AUTO 15004KT 10SM CLR 08/M02 A3035 RMK AO2 SLP281 T00781017
 401830011=
KMLP 170753Z AUTO 14009KT 10SM CLR 07/M04 A3041 RMK AO2 SLP241 T00671044
 401110006=
KMUO 170758Z AUTO 00000KT 10SM CLR 02/M03 A3033 RMK AO2 SLP277 T00211030 $=
KMYL 170751Z AUTO 06003KT 10SM CLR M01/M03 A3035 RMK AO2 SLP277 T10061028=
KP69 170752Z AUTO 00000KT 02/M01 A3043 RMK AO1 SLP310 T00221011 401781011=
KPIH 170753Z AUTO 10003KT 10SM CLR M01/M03 A3037 RMK AO2 SLP284 T10061033=
KRXE 170753Z AUTO 00000KT 10SM CLR 00/M04 A3038 RMK AO2 SLP291 T00001039=
KSMN 170756Z AUTO 00000KT 10SM CLR M01/M04 A3043 RMK AO2 SLP326 T10111039
 FZRANO=
KSNT 170751Z AUTO 00000KT M04/M07 A3044 RMK AO1 SLP276 T10391067=
KSUN 170755Z AUTO 32009KT 10SM CLR 02/M02 A3040 RMK AO2=
KTWF 170753Z AUTO 18009KT 10SM CLR 03/M02 A3035 RMK AO2 SLP262 T00281017=